Terminal Aerodrome Forecast
Issued by NWS Paducah, KY

Home | Current Version | Previous Version | Text Only | Print | Product List | Glossary On
Versions: 1 2 3 4 5 6 7 8 9 10 11 12 13
000
FTUS43 KPAH 041120
TAFEVV
TAF
KEVV 041120Z 0412/0512 06005KT P6SM -RA OVC050
     FM041500 09006KT 6SM -RA BR BKN025
     FM041800 18005KT 2SM -RADZ BR SCT007 OVC015
     FM050000 27004KT 4SM BR SCT007 OVC020
     FM050600 30004KT P6SM FEW025 OVC250=

USA.gov is the U.S. government's official web portal to all federal, state and local government web resources and services.